sensor_id;sensor_type;location;lat;lon;timestamp;pressure;altitude;pressure_sealevel;temperature;humidity
28306;BME280;7516;43.570;1.448;2022-09-13T00:01:12;99069.03;;;24.05;99.45
28306;BME280;7516;43.570;1.448;2022-09-13T00:03:40;99069.03;;;24.05;100.00
28306;BME280;7516;43.570;1.448;2022-09-13T00:06:09;99065.81;;;24.02;100.00
28306;BME280;7516;43.570;1.448;2022-09-13T00:08:37;99053.50;;;24.01;100.00
28306;BME280;7516;43.570;1.448;2022-09-13T00:11:06;99044.44;;;23.97;99.95
28306;BME280;7516;43.570;1.448;2022-09-13T00:13:34;99049.81;;;23.97;100.00
28306;BME280;7516;43.570;1.448;2022-09-13T00:16:01;99059.72;;;23.97;100.00
28306;BME280;7516;43.570;1.448;2022-09-13T00:18:30;99046.06;;;23.93;100.00
28306;BME280;7516;43.570;1.448;2022-09-13T00:21:05;99038.34;;;23.92;100.00
28306;BME280;7516;43.570;1.448;2022-09-13T00:23:32;99030.56;;;23.90;100.00
28306;BME280;7516;43.570;1.448;2022-09-13T00:26:10;99025.22;;;23.90;100.00
28306;BME280;7516;43.570;1.448;2022-09-13T00:28:38;99014.25;;;23.87;100.00
28306;BME280;7516;43.570;1.448;2022-09-13T00:31:08;99012.09;;;23.89;100.00
28306;BME280;7516;43.570;1.448;2022-09-13T00:33:35;99016.94;;;23.87;100.00
28306;BME280;7516;43.570;1.448;2022-09-13T00:36:04;99017.19;;;23.85;100.00
28306;BME280;7516;43.570;1.448;2022-09-13T00:38:33;99014.03;;;23.83;100.00
28306;BME280;7516;43.570;1.448;2022-09-13T00:41:01;99003.81;;;23.85;100.00
28306;BME280;7516;43.570;1.448;2022-09-13T00:43:47;99011.03;;;23.85;100.00
28306;BME280;7516;43.570;1.448;2022-09-13T00:46:20;99017.19;;;23.85;100.00
28306;BME280;7516;43.570;1.448;2022-09-13T00:48:52;99017.19;;;23.85;100.00
28306;BME280;7516;43.570;1.448;2022-09-13T00:51:21;98997.66;;;23.85;100.00
28306;BME280;7516;43.570;1.448;2022-09-13T00:53:52;98998.47;;;23.85;100.00
28306;BME280;7516;43.570;1.448;2022-09-13T00:56:24;98988.31;;;23.82;100.00
28306;BME280;7516;43.570;1.448;2022-09-13T00:58:57;98996.34;;;23.82;100.00
28306;BME280;7516;43.570;1.448;2022-09-13T01:01:33;99004.38;;;23.82;100.00
28306;BME280;7516;43.570;1.448;2022-09-13T01:04:04;98992.59;;;23.83;100.00
28306;BME280;7516;43.570;1.448;2022-09-13T01:06:34;98985.34;;;23.84;100.00
28306;BME280;7516;43.570;1.448;2022-09-13T01:09:03;98980.78;;;23.84;100.00
28306;BME280;7516;43.570;1.448;2022-09-13T01:11:37;98975.97;;;23.86;100.00
28306;BME280;7516;43.570;1.448;2022-09-13T01:14:08;98983.72;;;23.88;100.00
28306;BME280;7516;43.570;1.448;2022-09-13T01:16:36;98989.09;;;23.88;100.00
28306;BME280;7516;43.570;1.448;2022-09-13T01:19:03;98986.13;;;23.89;100.00
28306;BME280;7516;43.570;1.448;2022-09-13T01:25:05;98984.00;;;23.91;100.00
28306;BME280;7516;43.570;1.448;2022-09-13T01:27:47;98979.44;;;23.92;100.00
28306;BME280;7516;43.570;1.448;2022-09-13T01:30:24;98980.22;;;23.92;100.00
28306;BME280;7516;43.570;1.448;2022-09-13T01:33:05;98980.22;;;23.92;100.00
28306;BME280;7516;43.570;1.448;2022-09-13T01:35:45;98979.13;;;23.93;100.00
28306;BME280;7516;43.570;1.448;2022-09-13T01:38:27;98980.22;;;23.92;100.00
28306;BME280;7516;43.570;1.448;2022-09-13T01:41:04;98981.31;;;23.91;100.00
28306;BME280;7516;43.570;1.448;2022-09-13T01:43:41;98986.66;;;23.91;100.00
28306;BME280;7516;43.570;1.448;2022-09-13T01:46:17;98985.06;;;23.90;100.00
28306;BME280;7516;43.570;1.448;2022-09-13T01:48:54;98973.81;;;23.88;100.00
28306;BME280;7516;43.570;1.448;2022-09-13T01:51:27;98964.72;;;23.89;100.00
28306;BME280;7516;43.570;1.448;2022-09-13T01:54:11;98958.03;;;23.87;100.00
28306;BME280;7516;43.570;1.448;2022-09-13T01:56:46;98957.22;;;23.86;100.00
28306;BME280;7516;43.570;1.448;2022-09-13T01:59:20;98954.03;;;23.84;100.00
28306;BME280;7516;43.570;1.448;2022-09-13T02:01:56;98951.34;;;23.84;100.00
28306;BME280;7516;43.570;1.448;2022-09-13T02:04:28;98952.19;;;23.80;100.00
28306;BME280;7516;43.570;1.448;2022-09-13T02:07:04;98947.91;;;23.79;100.00
28306;BME280;7516;43.570;1.448;2022-09-13T02:09:36;98935.59;;;23.78;99.57
28306;BME280;7516;43.570;1.448;2022-09-13T02:12:09;98925.16;;;23.76;99.82
28306;BME280;7516;43.570;1.448;2022-09-13T02:14:43;98922.28;;;23.73;99.87
28306;BME280;7516;43.570;1.448;2022-09-13T02:17:15;98912.91;;;23.70;98.71
28306;BME280;7516;43.570;1.448;2022-09-13T02:19:48;98899.00;;;23.68;98.57
28306;BME280;7516;43.570;1.448;2022-09-13T02:22:21;98887.28;;;23.64;97.90
28306;BME280;7516;43.570;1.448;2022-09-13T02:24:53;98885.13;;;23.61;98.64
28306;BME280;7516;43.570;1.448;2022-09-13T02:27:24;98876.09;;;23.57;98.59
28306;BME280;7516;43.570;1.448;2022-09-13T02:29:56;98876.63;;;23.54;97.51
28306;BME280;7516;43.570;1.448;2022-09-13T02:32:30;98891.06;;;23.53;98.33
28306;BME280;7516;43.570;1.448;2022-09-13T02:35:02;98890.53;;;23.51;98.45
28306;BME280;7516;43.570;1.448;2022-09-13T02:37:31;98890.00;;;23.49;97.97
28306;BME280;7516;43.570;1.448;2022-09-13T02:40:03;98885.22;;;23.46;97.78
28306;BME280;7516;43.570;1.448;2022-09-13T02:42:34;98882.81;;;23.44;97.38
28306;BME280;7516;43.570;1.448;2022-09-13T02:45:05;98880.66;;;23.41;97.58
28306;BME280;7516;43.570;1.448;2022-09-13T02:47:40;98883.34;;;23.41;97.27
28306;BME280;7516;43.570;1.448;2022-09-13T02:50:24;98885.53;;;23.39;97.40
28306;BME280;7516;43.570;1.448;2022-09-13T02:53:01;98877.22;;;23.36;96.70
28306;BME280;7516;43.570;1.448;2022-09-13T02:55:38;98874.56;;;23.36;96.62
28306;BME280;7516;43.570;1.448;2022-09-13T02:58:11;98875.09;;;23.33;96.49
28306;BME280;7516;43.570;1.448;2022-09-13T03:00:40;98864.69;;;23.31;96.31
28306;BME280;7516;43.570;1.448;2022-09-13T03:03:13;98874.88;;;23.29;96.20
28306;BME280;7516;43.570;1.448;2022-09-13T03:05:42;98866.84;;;23.29;97.13
28306;BME280;7516;43.570;1.448;2022-09-13T03:08:12;98871.41;;;23.29;97.64
28306;BME280;7516;43.570;1.448;2022-09-13T03:10:50;98877.81;;;23.27;97.72
28306;BME280;7516;43.570;1.448;2022-09-13T03:13:46;98879.41;;;23.29;96.96
28306;BME280;7516;43.570;1.448;2022-09-13T03:16:27;98877.53;;;23.29;98.21
28306;BME280;7516;43.570;1.448;2022-09-13T03:19:16;98870.56;;;23.33;98.45
28306;BME280;7516;43.570;1.448;2022-09-13T03:22:02;98875.63;;;23.35;99.30
28306;BME280;7516;43.570;1.448;2022-09-13T03:24:41;98870.25;;;23.40;99.25
28306;BME280;7516;43.570;1.448;2022-09-13T03:27:19;98867.56;;;23.45;100.00
28306;BME280;7516;43.570;1.448;2022-09-13T03:29:55;98856.56;;;23.56;100.00
28306;BME280;7516;43.570;1.448;2022-09-13T03:32:33;98854.94;;;23.55;100.00
28306;BME280;7516;43.570;1.448;2022-09-13T03:35:12;98857.91;;;23.54;100.00
28306;BME280;7516;43.570;1.448;2022-09-13T03:37:46;98848.53;;;23.56;100.00
28306;BME280;7516;43.570;1.448;2022-09-13T03:40:23;98840.72;;;23.60;100.00
28306;BME280;7516;43.570;1.448;2022-09-13T03:42:54;98839.94;;;23.59;100.00
28306;BME280;7516;43.570;1.448;2022-09-13T03:45:28;98849.00;;;23.63;100.00
28306;BME280;7516;43.570;1.448;2022-09-13T03:47:58;98835.09;;;23.61;100.00
28306;BME280;7516;43.570;1.448;2022-09-13T03:50:28;98827.81;;;23.67;100.00
28306;BME280;7516;43.570;1.448;2022-09-13T03:53:00;98837.22;;;23.65;100.00
28306;BME280;7516;43.570;1.448;2022-09-13T03:55:30;98828.41;;;23.64;100.00
28306;BME280;7516;43.570;1.448;2022-09-13T03:57:59;98837.72;;;23.67;100.00
28306;BME280;7516;43.570;1.448;2022-09-13T04:00:27;98823.06;;;23.64;100.00
28306;BME280;7516;43.570;1.448;2022-09-13T04:02:54;98826.81;;;23.63;100.00
28306;BME280;7516;43.570;1.448;2022-09-13T04:05:22;98819.56;;;23.63;100.00
28306;BME280;7516;43.570;1.448;2022-09-13T04:07:50;98821.97;;;23.65;100.00
28306;BME280;7516;43.570;1.448;2022-09-13T04:10:18;98823.59;;;23.61;100.00
28306;BME280;7516;43.570;1.448;2022-09-13T04:12:45;98809.69;;;23.59;100.00
28306;BME280;7516;43.570;1.448;2022-09-13T04:15:14;98824.94;;;23.63;100.00
28306;BME280;7516;43.570;1.448;2022-09-13T04:17:42;98826.00;;;23.62;100.00
28306;BME280;7516;43.570;1.448;2022-09-13T04:20:09;98826.53;;;23.65;100.00
28306;BME280;7516;43.570;1.448;2022-09-13T04:22:37;98827.03;;;23.67;100.00
28306;BME280;7516;43.570;1.448;2022-09-13T04:25:07;98830.81;;;23.66;100.00
28306;BME280;7516;43.570;1.448;2022-09-13T04:27:35;98826.00;;;23.62;100.00
28306;BME280;7516;43.570;1.448;2022-09-13T04:30:03;98828.41;;;23.64;100.00
28306;BME280;7516;43.570;1.448;2022-09-13T04:32:30;98832.94;;;23.63;100.00
28306;BME280;7516;43.570;1.448;2022-09-13T04:34:58;98829.47;;;23.63;100.00
28306;BME280;7516;43.570;1.448;2022-09-13T04:37:26;98830.28;;;23.63;100.00
28306;BME280;7516;43.570;1.448;2022-09-13T04:39:53;98825.19;;;23.62;100.00
28306;BME280;7516;43.570;1.448;2022-09-13T04:42:22;98828.94;;;23.61;100.00
28306;BME280;7516;43.570;1.448;2022-09-13T04:44:50;98821.19;;;23.59;100.00
28306;BME280;7516;43.570;1.448;2022-09-13T04:47:17;98819.84;;;23.62;100.00
28306;BME280;7516;43.570;1.448;2022-09-13T04:49:45;98818.19;;;23.66;100.00
28306;BME280;7516;43.570;1.448;2022-09-13T04:52:13;98809.41;;;23.66;100.00
28306;BME280;7516;43.570;1.448;2022-09-13T04:54:41;98827.81;;;23.67;100.00
28306;BME280;7516;43.570;1.448;2022-09-13T04:57:08;98823.53;;;23.66;100.00
28306;BME280;7516;43.570;1.448;2022-09-13T04:59:38;98815.81;;;23.65;100.00
28306;BME280;7516;43.570;1.448;2022-09-13T05:02:05;98813.94;;;23.65;100.00
28306;BME280;7516;43.570;1.448;2022-09-13T05:04:33;98817.13;;;23.67;100.00
28306;BME280;7516;43.570;1.448;2022-09-13T05:07:00;98831.56;;;23.66;100.00
28306;BME280;7516;43.570;1.448;2022-09-13T05:09:28;98818.19;;;23.66;100.00
28306;BME280;7516;43.570;1.448;2022-09-13T05:11:55;98819.00;;;23.67;100.00
28306;BME280;7516;43.570;1.448;2022-09-13T05:14:23;98831.56;;;23.66;100.00
28306;BME280;7516;43.570;1.448;2022-09-13T05:16:52;98838.03;;;23.65;100.00
28306;BME280;7516;43.570;1.448;2022-09-13T05:19:19;98853.78;;;23.67;100.00
28306;BME280;7516;43.570;1.448;2022-09-13T05:21:46;98863.69;;;23.66;100.00
28306;BME280;7516;43.570;1.448;2022-09-13T05:24:14;98855.38;;;23.68;100.00
28306;BME280;7516;43.570;1.448;2022-09-13T05:26:41;98851.91;;;23.67;100.00
28306;BME280;7516;43.570;1.448;2022-09-13T05:29:09;98850.28;;;23.71;100.00
28306;BME280;7516;43.570;1.448;2022-09-13T05:31:38;98847.34;;;23.73;100.00
28306;BME280;7516;43.570;1.448;2022-09-13T05:34:10;98836.84;;;23.76;100.00
28306;BME280;7516;43.570;1.448;2022-09-13T05:36:39;98841.94;;;23.78;100.00
28306;BME280;7516;43.570;1.448;2022-09-13T05:39:11;98828.81;;;23.76;100.00
28306;BME280;7516;43.570;1.448;2022-09-13T05:41:38;98820.00;;;23.76;100.00
28306;BME280;7516;43.570;1.448;2022-09-13T05:44:06;98831.00;;;23.74;100.00
28306;BME280;7516;43.570;1.448;2022-09-13T05:46:34;98825.34;;;23.76;100.00
28306;BME280;7516;43.570;1.448;2022-09-13T05:49:02;98817.63;;;23.74;100.00
28306;BME280;7516;43.570;1.448;2022-09-13T05:51:31;98820.00;;;23.76;100.00
28306;BME280;7516;43.570;1.448;2022-09-13T05:53:59;98823.78;;;23.75;100.00
28306;BME280;7516;43.570;1.448;2022-09-13T05:56:28;98812.75;;;23.76;100.00
28306;BME280;7516;43.570;1.448;2022-09-13T05:58:57;98813.84;;;23.75;100.00
28306;BME280;7516;43.570;1.448;2022-09-13T06:01:27;98799.16;;;23.73;100.00
28306;BME280;7516;43.570;1.448;2022-09-13T06:03:56;98806.63;;;23.76;100.00
28306;BME280;7516;43.570;1.448;2022-09-13T06:06:24;98803.13;;;23.75;100.00
28306;BME280;7516;43.570;1.448;2022-09-13T06:08:54;98804.25;;;23.74;100.00
28306;BME280;7516;43.570;1.448;2022-09-13T06:11:22;98798.31;;;23.77;100.00
28306;BME280;7516;43.570;1.448;2022-09-13T06:13:51;98795.63;;;23.77;100.00
28306;BME280;7516;43.570;1.448;2022-09-13T06:16:18;98797.75;;;23.80;100.00
28306;BME280;7516;43.570;1.448;2022-09-13T06:18:46;98805.00;;;23.80;100.00
28306;BME280;7516;43.570;1.448;2022-09-13T06:21:16;98806.00;;;23.84;100.00
28306;BME280;7516;43.570;1.448;2022-09-13T06:23:44;98799.88;;;23.83;100.00
28306;BME280;7516;43.570;1.448;2022-09-13T06:26:15;98809.22;;;23.86;100.00
28306;BME280;7516;43.570;1.448;2022-09-13T06:28:46;98800.91;;;23.87;100.00
28306;BME280;7516;43.570;1.448;2022-09-13T06:31:16;98803.59;;;23.87;100.00
28306;BME280;7516;43.570;1.448;2022-09-13T06:33:44;98795.28;;;23.89;100.00
28306;BME280;7516;43.570;1.448;2022-09-13T06:36:13;98778.94;;;23.90;100.00
28306;BME280;7516;43.570;1.448;2022-09-13T06:38:44;98776.75;;;23.92;100.00
28306;BME280;7516;43.570;1.448;2022-09-13T06:41:14;98786.91;;;23.95;100.00
28306;BME280;7516;43.570;1.448;2022-09-13T06:43:44;98773.78;;;23.94;100.00
28306;BME280;7516;43.570;1.448;2022-09-13T06:46:14;98769.22;;;23.99;100.00
28306;BME280;7516;43.570;1.448;2022-09-13T06:48:43;98771.63;;;24.01;100.00
28306;BME280;7516;43.570;1.448;2022-09-13T06:51:13;98769.44;;;24.03;100.00
28306;BME280;7516;43.570;1.448;2022-09-13T06:53:42;98766.47;;;24.05;100.00
28306;BME280;7516;43.570;1.448;2022-09-13T06:56:11;98762.72;;;24.06;100.00
28306;BME280;7516;43.570;1.448;2022-09-13T06:58:41;98759.47;;;24.09;100.00
28306;BME280;7516;43.570;1.448;2022-09-13T07:01:11;98762.66;;;24.11;100.00
28306;BME280;7516;43.570;1.448;2022-09-13T07:03:40;98762.09;;;24.14;100.00
28306;BME280;7516;43.570;1.448;2022-09-13T07:06:12;98770.94;;;24.14;100.00
28306;BME280;7516;43.570;1.448;2022-09-13T07:08:41;98761.53;;;24.17;100.00
28306;BME280;7516;43.570;1.448;2022-09-13T07:11:10;98751.88;;;24.21;100.00
28306;BME280;7516;43.570;1.448;2022-09-13T07:13:40;98755.06;;;24.23;100.00
28306;BME280;7516;43.570;1.448;2022-09-13T07:16:11;98761.47;;;24.27;100.00
28306;BME280;7516;43.570;1.448;2022-09-13T07:18:38;98755.50;;;24.30;100.00
28306;BME280;7516;43.570;1.448;2022-09-13T07:21:07;98757.63;;;24.33;100.00
28306;BME280;7516;43.570;1.448;2022-09-13T07:23:38;98762.72;;;24.34;100.00
28306;BME280;7516;43.570;1.448;2022-09-13T07:26:06;98769.34;;;24.37;99.68
28306;BME280;7516;43.570;1.448;2022-09-13T07:28:35;98778.94;;;24.43;99.99
28306;BME280;7516;43.570;1.448;2022-09-13T07:31:09;98782.63;;;24.47;99.80
28306;BME280;7516;43.570;1.448;2022-09-13T07:33:38;98787.97;;;24.52;99.49
28306;BME280;7516;43.570;1.448;2022-09-13T07:36:06;98771.81;;;24.57;99.73
28306;BME280;7516;43.570;1.448;2022-09-13T07:38:35;98770.66;;;24.63;98.60
28306;BME280;7516;43.570;1.448;2022-09-13T07:41:03;98784.28;;;24.67;97.75
28306;BME280;7516;43.570;1.448;2022-09-13T07:43:31;98778.84;;;24.72;97.85
28306;BME280;7516;43.570;1.448;2022-09-13T07:46:01;98773.97;;;24.79;97.64
28306;BME280;7516;43.570;1.448;2022-09-13T07:48:31;98767.44;;;24.85;98.02
28306;BME280;7516;43.570;1.448;2022-09-13T07:51:01;98767.09;;;24.92;97.30
28306;BME280;7516;43.570;1.448;2022-09-13T07:53:29;98762.16;;;24.99;96.68
28306;BME280;7516;43.570;1.448;2022-09-13T07:56:01;98763.19;;;25.03;95.98
28306;BME280;7516;43.570;1.448;2022-09-13T07:58:29;98771.69;;;25.10;95.55
28306;BME280;7516;43.570;1.448;2022-09-13T08:01:01;98773.19;;;25.16;94.03
28306;BME280;7516;43.570;1.448;2022-09-13T08:03:31;98768.28;;;25.23;93.75
28306;BME280;7516;43.570;1.448;2022-09-13T08:05:59;98759.84;;;25.30;93.28
28306;BME280;7516;43.570;1.448;2022-09-13T08:08:27;98755.72;;;25.37;92.01
28306;BME280;7516;43.570;1.448;2022-09-13T08:10:55;98764.19;;;25.44;92.61
28306;BME280;7516;43.570;1.448;2022-09-13T08:13:22;98761.44;;;25.49;91.96
28306;BME280;7516;43.570;1.448;2022-09-13T08:15:50;98762.41;;;25.54;91.12
28306;BME280;7516;43.570;1.448;2022-09-13T08:18:18;98777.38;;;25.60;90.59
28306;BME280;7516;43.570;1.448;2022-09-13T08:20:47;98782.16;;;25.63;89.94
28306;BME280;7516;43.570;1.448;2022-09-13T08:23:14;98778.63;;;25.67;89.47
28306;BME280;7516;43.570;1.448;2022-09-13T08:25:42;98792.75;;;25.73;89.21
28306;BME280;7516;43.570;1.448;2022-09-13T08:28:13;98781.44;;;25.76;88.07
28306;BME280;7516;43.570;1.448;2022-09-13T08:30:41;98790.97;;;25.82;88.18
28306;BME280;7516;43.570;1.448;2022-09-13T08:33:10;98800.03;;;25.86;86.53
28306;BME280;7516;43.570;1.448;2022-09-13T08:35:38;98793.00;;;25.90;86.00
28306;BME280;7516;43.570;1.448;2022-09-13T08:38:07;98792.13;;;25.95;85.81
28306;BME280;7516;43.570;1.448;2022-09-13T08:40:40;98796.59;;;25.99;85.47
28306;BME280;7516;43.570;1.448;2022-09-13T08:43:14;98803.47;;;26.05;85.69
28306;BME280;7516;43.570;1.448;2022-09-13T08:45:49;98817.91;;;26.09;84.50
28306;BME280;7516;43.570;1.448;2022-09-13T08:48:19;98816.53;;;26.12;84.60
28306;BME280;7516;43.570;1.448;2022-09-13T08:50:52;98805.78;;;26.12;84.24
28306;BME280;7516;43.570;1.448;2022-09-13T08:53:28;98820.69;;;26.18;84.11
28306;BME280;7516;43.570;1.448;2022-09-13T08:56:01;98820.88;;;26.21;83.54
28306;BME280;7516;43.570;1.448;2022-09-13T08:58:52;98826.25;;;26.21;83.21
28306;BME280;7516;43.570;1.448;2022-09-13T09:01:33;98830.78;;;26.26;83.19
28306;BME280;7516;43.570;1.448;2022-09-13T09:04:11;98833.69;;;26.30;82.60
28306;BME280;7516;43.570;1.448;2022-09-13T09:06:42;98826.72;;;26.29;82.67
28306;BME280;7516;43.570;1.448;2022-09-13T09:09:15;98825.03;;;26.33;82.72
28306;BME280;7516;43.570;1.448;2022-09-13T09:11:47;98814.78;;;26.35;83.12
28306;BME280;7516;43.570;1.448;2022-09-13T09:14:31;98820.94;;;26.35;82.44
28306;BME280;7516;43.570;1.448;2022-09-13T09:17:01;98823.34;;;26.37;82.26
28306;BME280;7516;43.570;1.448;2022-09-13T09:19:35;98814.19;;;26.38;82.57
28306;BME280;7516;43.570;1.448;2022-09-13T09:22:10;98822.03;;;26.34;82.86
28306;BME280;7516;43.570;1.448;2022-09-13T09:24:45;98819.66;;;26.33;81.25
28306;BME280;7516;43.570;1.448;2022-09-13T09:27:16;98815.06;;;26.33;82.75
28306;BME280;7516;43.570;1.448;2022-09-13T09:29:45;98820.16;;;26.35;81.97
28306;BME280;7516;43.570;1.448;2022-09-13T09:32:31;98823.94;;;26.34;82.97
28306;BME280;7516;43.570;1.448;2022-09-13T09:35:11;98822.34;;;26.33;82.31
28306;BME280;7516;43.570;1.448;2022-09-13T09:37:56;98832.00;;;26.34;82.46
28306;BME280;7516;43.570;1.448;2022-09-13T09:40:29;98829.09;;;26.30;82.51
28306;BME280;7516;43.570;1.448;2022-09-13T09:42:58;98836.38;;;26.30;83.14
28306;BME280;7516;43.570;1.448;2022-09-13T09:45:28;98842.53;;;26.30;82.25
28306;BME280;7516;43.570;1.448;2022-09-13T09:48:01;98844.63;;;26.33;82.27
28306;BME280;7516;43.570;1.448;2022-09-13T09:50:33;98824.72;;;26.34;82.04
28306;BME280;7516;43.570;1.448;2022-09-13T09:53:07;98828.72;;;26.37;82.55
28306;BME280;7516;43.570;1.448;2022-09-13T09:55:41;98817.38;;;26.40;81.50
28306;BME280;7516;43.570;1.448;2022-09-13T09:58:11;98820.47;;;26.47;82.05
28306;BME280;7516;43.570;1.448;2022-09-13T10:00:51;98815.78;;;26.52;80.37
28306;BME280;7516;43.570;1.448;2022-09-13T10:03:23;98820.75;;;26.59;80.27
28306;BME280;7516;43.570;1.448;2022-09-13T10:06:01;98818.78;;;26.65;80.85
28306;BME280;7516;43.570;1.448;2022-09-13T10:08:32;98811.59;;;26.74;79.91
28306;BME280;7516;43.570;1.448;2022-09-13T10:11:01;98818.66;;;26.83;79.11
28306;BME280;7516;43.570;1.448;2022-09-13T10:13:30;98819.06;;;26.90;80.11
28306;BME280;7516;43.570;1.448;2022-09-13T10:16:00;98827.53;;;26.98;79.30
28306;BME280;7516;43.570;1.448;2022-09-13T10:18:29;98813.16;;;27.02;78.33
28306;BME280;7516;43.570;1.448;2022-09-13T10:21:02;98814.84;;;27.12;77.90
28306;BME280;7516;43.570;1.448;2022-09-13T10:23:31;98801.31;;;27.17;78.63
28306;BME280;7516;43.570;1.448;2022-09-13T10:26:06;98810.25;;;27.26;77.68
28306;BME280;7516;43.570;1.448;2022-09-13T10:28:40;98819.66;;;27.37;77.85
28306;BME280;7516;43.570;1.448;2022-09-13T10:31:11;98817.38;;;27.44;76.46
28306;BME280;7516;43.570;1.448;2022-09-13T10:33:41;98814.34;;;27.59;76.57
28306;BME280;7516;43.570;1.448;2022-09-13T10:36:14;98815.69;;;27.70;74.68
28306;BME280;7516;43.570;1.448;2022-09-13T10:38:50;98806.22;;;27.82;73.20
28306;BME280;7516;43.570;1.448;2022-09-13T10:41:26;98806.28;;;27.90;72.23
28306;BME280;7516;43.570;1.448;2022-09-13T10:43:59;98780.88;;;28.05;73.42
28306;BME280;7516;43.570;1.448;2022-09-13T10:46:30;98782.81;;;28.13;72.39
28306;BME280;7516;43.570;1.448;2022-09-13T10:48:58;98770.81;;;28.19;72.34
28306;BME280;7516;43.570;1.448;2022-09-13T10:51:32;98772.28;;;28.34;71.10
28306;BME280;7516;43.570;1.448;2022-09-13T10:54:15;98786.44;;;28.39;70.73
28306;BME280;7516;43.570;1.448;2022-09-13T10:56:45;98782.00;;;28.43;69.32
28306;BME280;7516;43.570;1.448;2022-09-13T10:59:20;98778.19;;;28.44;68.45
28306;BME280;7516;43.570;1.448;2022-09-13T11:02:13;98765.53;;;28.54;68.80
28306;BME280;7516;43.570;1.448;2022-09-13T11:05:02;98764.91;;;28.57;68.59
28306;BME280;7516;43.570;1.448;2022-09-13T11:08:02;98759.97;;;28.59;67.78
28306;BME280;7516;43.570;1.448;2022-09-13T11:10:38;98766.84;;;28.65;66.69
28306;BME280;7516;43.570;1.448;2022-09-13T11:13:20;98754.28;;;28.69;66.10
28306;BME280;7516;43.570;1.448;2022-09-13T11:15:58;98742.44;;;28.78;65.92
28306;BME280;7516;43.570;1.448;2022-09-13T11:21:47;98753.09;;;29.01;66.13
28306;BME280;7516;43.570;1.448;2022-09-13T11:24:37;98769.00;;;29.11;65.50
28306;BME280;7516;43.570;1.448;2022-09-13T11:27:15;98757.41;;;29.10;64.75
28306;BME280;7516;43.570;1.448;2022-09-13T11:29:59;98760.41;;;29.09;64.72
28306;BME280;7516;43.570;1.448;2022-09-13T11:32:41;98748.34;;;29.06;64.62
28306;BME280;7516;43.570;1.448;2022-09-13T11:35:35;98758.19;;;29.02;64.45
28306;BME280;7516;43.570;1.448;2022-09-13T11:38:22;98758.34;;;28.97;65.44
28306;BME280;7516;43.570;1.448;2022-09-13T11:40:57;98759.28;;;28.93;64.94
28306;BME280;7516;43.570;1.448;2022-09-13T11:43:46;98746.44;;;28.90;64.96
28306;BME280;7516;43.570;1.448;2022-09-13T11:46:26;98748.94;;;28.86;65.19
28306;BME280;7516;43.570;1.448;2022-09-13T11:49:27;98754.03;;;28.88;65.19
28306;BME280;7516;43.570;1.448;2022-09-13T11:52:06;98750.06;;;28.85;65.60
28306;BME280;7516;43.570;1.448;2022-09-13T11:54:47;98754.50;;;28.81;64.89
28306;BME280;7516;43.570;1.448;2022-09-13T11:57:23;98745.31;;;28.91;65.70
28306;BME280;7516;43.570;1.448;2022-09-13T11:59:53;98756.44;;;28.89;65.05
28306;BME280;7516;43.570;1.448;2022-09-13T12:02:28;98759.91;;;28.90;65.19
28306;BME280;7516;43.570;1.448;2022-09-13T12:05:01;98762.94;;;28.88;65.35
28306;BME280;7516;43.570;1.448;2022-09-13T12:07:34;98764.69;;;28.84;65.87
28306;BME280;7516;43.570;1.448;2022-09-13T12:10:13;98768.31;;;28.79;66.01
28306;BME280;7516;43.570;1.448;2022-09-13T12:12:42;98758.94;;;28.77;65.28
28306;BME280;7516;43.570;1.448;2022-09-13T12:15:15;98767.94;;;28.72;65.98
28306;BME280;7516;43.570;1.448;2022-09-13T12:17:48;98773.16;;;28.69;65.88
28306;BME280;7516;43.570;1.448;2022-09-13T12:20:24;98774.94;;;28.65;65.76
28306;BME280;7516;43.570;1.448;2022-09-13T12:22:58;98777.63;;;28.65;65.96
28306;BME280;7516;43.570;1.448;2022-09-13T12:25:33;98780.31;;;28.65;65.92
28306;BME280;7516;43.570;1.448;2022-09-13T12:28:09;98780.31;;;28.65;65.86
28306;BME280;7516;43.570;1.448;2022-09-13T12:30:43;98762.84;;;28.62;65.52
28306;BME280;7516;43.570;1.448;2022-09-13T12:33:15;98771.75;;;28.63;66.19
28306;BME280;7516;43.570;1.448;2022-09-13T12:36:01;98760.94;;;28.63;66.71
28306;BME280;7516;43.570;1.448;2022-09-13T12:38:51;98765.53;;;28.62;66.37
28306;BME280;7516;43.570;1.448;2022-09-13T12:41:34;98763.66;;;28.63;66.09
28306;BME280;7516;43.570;1.448;2022-09-13T12:44:27;98758.75;;;28.65;66.28
28306;BME280;7516;43.570;1.448;2022-09-13T12:50:36;98756.66;;;28.62;66.23
28306;BME280;7516;43.570;1.448;2022-09-13T12:53:17;98750.47;;;28.61;66.09
28306;BME280;7516;43.570;1.448;2022-09-13T12:56:00;98738.09;;;28.60;65.22
28306;BME280;7516;43.570;1.448;2022-09-13T12:58:52;98736.84;;;28.58;65.14
28306;BME280;7516;43.570;1.448;2022-09-13T13:01:22;98734.13;;;28.58;65.62
28306;BME280;7516;43.570;1.448;2022-09-13T13:03:53;98728.75;;;28.58;65.21
28306;BME280;7516;43.570;1.448;2022-09-13T13:06:31;98732.25;;;28.58;65.44
28306;BME280;7516;43.570;1.448;2022-09-13T13:09:03;98735.69;;;28.59;64.44
28306;BME280;7516;43.570;1.448;2022-09-13T13:11:43;98741.44;;;28.57;64.01
28306;BME280;7516;43.570;1.448;2022-09-13T13:14:41;98739.03;;;28.56;64.13
28306;BME280;7516;43.570;1.448;2022-09-13T13:17:36;98740.31;;;28.50;63.04
28306;BME280;7516;43.570;1.448;2022-09-13T13:20:44;98746.00;;;28.48;63.35
28306;BME280;7516;43.570;1.448;2022-09-13T13:23:21;98744.72;;;28.45;63.54
28306;BME280;7516;43.570;1.448;2022-09-13T13:25:57;98737.25;;;28.42;64.32
28306;BME280;7516;43.570;1.448;2022-09-13T13:28:49;98723.31;;;28.40;65.21
28306;BME280;7516;43.570;1.448;2022-09-13T13:31:35;98726.78;;;28.41;65.40
28306;BME280;7516;43.570;1.448;2022-09-13T13:34:29;98729.31;;;28.37;66.53
28306;BME280;7516;43.570;1.448;2022-09-13T13:37:00;98731.53;;;28.35;66.16
28306;BME280;7516;43.570;1.448;2022-09-13T13:39:36;98729.78;;;28.31;65.37
28306;BME280;7516;43.570;1.448;2022-09-13T13:42:13;98724.06;;;28.32;65.31
28306;BME280;7516;43.570;1.448;2022-09-13T13:45:15;98713.44;;;28.27;65.09
28306;BME280;7516;43.570;1.448;2022-09-13T13:48:05;98697.25;;;28.27;65.94